sensor_id;sensor_type;location;lat;lon;timestamp;P1;durP1;ratioP1;P2;durP2;ratioP2
69573;SDS011;62840;52.366;5.980;2022-08-21T00:02:14;4.88;;;2.50;;
69573;SDS011;62840;52.366;5.980;2022-08-21T00:04:42;4.13;;;2.33;;
69573;SDS011;62840;52.366;5.980;2022-08-21T00:07:09;4.60;;;2.40;;
69573;SDS011;62840;52.366;5.980;2022-08-21T00:09:34;4.77;;;2.30;;
69573;SDS011;62840;52.366;5.980;2022-08-21T00:12:04;4.75;;;2.60;;
69573;SDS011;62840;52.366;5.980;2022-08-21T00:14:30;4.10;;;2.30;;
69573;SDS011;62840;52.366;5.980;2022-08-21T00:16:57;5.10;;;2.53;;
69573;SDS011;62840;52.366;5.980;2022-08-21T00:19:23;4.07;;;2.37;;
69573;SDS011;62840;52.366;5.980;2022-08-21T00:21:50;4.85;;;2.72;;
69573;SDS011;62840;52.366;5.980;2022-08-21T00:24:16;5.57;;;3.10;;
69573;SDS011;62840;52.366;5.980;2022-08-21T00:26:42;5.03;;;2.47;;
69573;SDS011;62840;52.366;5.980;2022-08-21T00:29:10;5.20;;;2.87;;
69573;SDS011;62840;52.366;5.980;2022-08-21T00:31:36;5.40;;;2.60;;
69573;SDS011;62840;52.366;5.980;2022-08-21T00:34:02;5.35;;;2.60;;
69573;SDS011;62840;52.366;5.980;2022-08-21T00:36:29;5.85;;;2.50;;
69573;SDS011;62840;52.366;5.980;2022-08-21T00:38:55;4.53;;;2.67;;
69573;SDS011;62840;52.366;5.980;2022-08-21T00:41:21;4.20;;;2.60;;
69573;SDS011;62840;52.366;5.980;2022-08-21T00:43:48;4.75;;;2.33;;
69573;SDS011;62840;52.366;5.980;2022-08-21T00:46:17;4.45;;;2.60;;
69573;SDS011;62840;52.366;5.980;2022-08-21T00:48:43;5.78;;;2.92;;
69573;SDS011;62840;52.366;5.980;2022-08-21T00:51:10;5.57;;;2.80;;
69573;SDS011;62840;52.366;5.980;2022-08-21T00:53:44;6.00;;;2.67;;
69573;SDS011;62840;52.366;5.980;2022-08-21T00:56:11;5.85;;;2.60;;
69573;SDS011;62840;52.366;5.980;2022-08-21T00:58:38;4.22;;;2.80;;
69573;SDS011;62840;52.366;5.980;2022-08-21T01:01:07;5.88;;;2.70;;
69573;SDS011;62840;52.366;5.980;2022-08-21T01:03:36;5.68;;;3.00;;
69573;SDS011;62840;52.366;5.980;2022-08-21T01:06:03;8.10;;;2.65;;
69573;SDS011;62840;52.366;5.980;2022-08-21T01:08:30;5.45;;;3.00;;
69573;SDS011;62840;52.366;5.980;2022-08-21T01:10:58;6.18;;;2.90;;
69573;SDS011;62840;52.366;5.980;2022-08-21T01:13:26;5.28;;;2.90;;
69573;SDS011;62840;52.366;5.980;2022-08-21T01:15:56;4.20;;;2.35;;
69573;SDS011;62840;52.366;5.980;2022-08-21T01:18:24;6.07;;;2.88;;
69573;SDS011;62840;52.366;5.980;2022-08-21T01:21:02;4.47;;;2.80;;
69573;SDS011;62840;52.366;5.980;2022-08-21T01:23:32;4.38;;;2.60;;
69573;SDS011;62840;52.366;5.980;2022-08-21T01:25:59;5.43;;;2.60;;
69573;SDS011;62840;52.366;5.980;2022-08-21T01:28:25;4.93;;;2.65;;
69573;SDS011;62840;52.366;5.980;2022-08-21T01:30:57;5.88;;;2.63;;
69573;SDS011;62840;52.366;5.980;2022-08-21T01:33:26;5.25;;;2.75;;
69573;SDS011;62840;52.366;5.980;2022-08-21T01:35:52;5.37;;;2.50;;
69573;SDS011;62840;52.366;5.980;2022-08-21T01:38:20;4.80;;;2.70;;
69573;SDS011;62840;52.366;5.980;2022-08-21T01:40:46;6.78;;;3.00;;
69573;SDS011;62840;52.366;5.980;2022-08-21T01:43:12;6.13;;;2.60;;
69573;SDS011;62840;52.366;5.980;2022-08-21T01:45:38;6.10;;;3.00;;
69573;SDS011;62840;52.366;5.980;2022-08-21T01:48:03;5.03;;;2.50;;
69573;SDS011;62840;52.366;5.980;2022-08-21T01:50:29;4.15;;;2.45;;
69573;SDS011;62840;52.366;5.980;2022-08-21T01:52:56;5.30;;;2.40;;
69573;SDS011;62840;52.366;5.980;2022-08-21T01:55:25;5.70;;;2.80;;
69573;SDS011;62840;52.366;5.980;2022-08-21T01:57:51;5.07;;;2.35;;
69573;SDS011;62840;52.366;5.980;2022-08-21T02:00:18;5.45;;;2.60;;
69573;SDS011;62840;52.366;5.980;2022-08-21T02:02:46;5.63;;;2.42;;
69573;SDS011;62840;52.366;5.980;2022-08-21T02:05:12;5.57;;;2.80;;
69573;SDS011;62840;52.366;5.980;2022-08-21T02:07:38;4.72;;;2.80;;
69573;SDS011;62840;52.366;5.980;2022-08-21T02:10:08;5.20;;;2.67;;
69573;SDS011;62840;52.366;5.980;2022-08-21T02:12:40;4.85;;;2.58;;
69573;SDS011;62840;52.366;5.980;2022-08-21T02:15:07;4.75;;;2.35;;
69573;SDS011;62840;52.366;5.980;2022-08-21T02:17:37;4.75;;;2.90;;
69573;SDS011;62840;52.366;5.980;2022-08-21T02:20:07;4.65;;;2.70;;
69573;SDS011;62840;52.366;5.980;2022-08-21T02:22:35;4.95;;;2.30;;
69573;SDS011;62840;52.366;5.980;2022-08-21T02:25:01;4.53;;;2.77;;
69573;SDS011;62840;52.366;5.980;2022-08-21T02:27:27;4.82;;;2.47;;
69573;SDS011;62840;52.366;5.980;2022-08-21T02:29:56;5.53;;;2.70;;
69573;SDS011;62840;52.366;5.980;2022-08-21T02:32:23;5.30;;;2.60;;
69573;SDS011;62840;52.366;5.980;2022-08-21T02:34:49;6.78;;;2.38;;
69573;SDS011;62840;52.366;5.980;2022-08-21T02:37:15;4.95;;;2.63;;
69573;SDS011;62840;52.366;5.980;2022-08-21T02:39:41;5.85;;;2.80;;
69573;SDS011;62840;52.366;5.980;2022-08-21T02:42:07;7.80;;;3.17;;
69573;SDS011;62840;52.366;5.980;2022-08-21T02:44:33;4.45;;;2.38;;
69573;SDS011;62840;52.366;5.980;2022-08-21T02:47:01;7.37;;;3.10;;
69573;SDS011;62840;52.366;5.980;2022-08-21T02:49:27;6.70;;;3.05;;
69573;SDS011;62840;52.366;5.980;2022-08-21T02:51:52;5.28;;;2.85;;
69573;SDS011;62840;52.366;5.980;2022-08-21T02:54:18;5.40;;;2.47;;
69573;SDS011;62840;52.366;5.980;2022-08-21T02:56:44;4.97;;;2.42;;
69573;SDS011;62840;52.366;5.980;2022-08-21T02:59:10;5.90;;;2.80;;
69573;SDS011;62840;52.366;5.980;2022-08-21T03:01:35;5.75;;;2.40;;
69573;SDS011;62840;52.366;5.980;2022-08-21T03:04:04;5.50;;;2.57;;
69573;SDS011;62840;52.366;5.980;2022-08-21T03:06:29;6.22;;;2.60;;
69573;SDS011;62840;52.366;5.980;2022-08-21T03:08:55;5.30;;;2.30;;
69573;SDS011;62840;52.366;5.980;2022-08-21T03:11:21;5.15;;;2.35;;
69573;SDS011;62840;52.366;5.980;2022-08-21T03:13:47;7.53;;;2.47;;
69573;SDS011;62840;52.366;5.980;2022-08-21T03:16:12;4.30;;;2.30;;
69573;SDS011;62840;52.366;5.980;2022-08-21T03:18:38;4.85;;;2.15;;
69573;SDS011;62840;52.366;5.980;2022-08-21T03:21:07;6.03;;;2.70;;
69573;SDS011;62840;52.366;5.980;2022-08-21T03:23:32;4.95;;;2.58;;
69573;SDS011;62840;52.366;5.980;2022-08-21T03:25:58;6.15;;;2.63;;
69573;SDS011;62840;52.366;5.980;2022-08-21T03:28:24;5.57;;;1.93;;
69573;SDS011;62840;52.366;5.980;2022-08-21T03:30:50;5.43;;;2.45;;
69573;SDS011;62840;52.366;5.980;2022-08-21T03:33:18;4.30;;;2.22;;
69573;SDS011;62840;52.366;5.980;2022-08-21T03:35:45;5.38;;;2.40;;
69573;SDS011;62840;52.366;5.980;2022-08-21T03:38:20;5.20;;;2.47;;
69573;SDS011;62840;52.366;5.980;2022-08-21T03:40:46;5.07;;;2.10;;
69573;SDS011;62840;52.366;5.980;2022-08-21T03:43:12;6.18;;;2.80;;
69573;SDS011;62840;52.366;5.980;2022-08-21T03:45:38;6.13;;;2.33;;
69573;SDS011;62840;52.366;5.980;2022-08-21T03:48:04;4.57;;;2.70;;
69573;SDS011;62840;52.366;5.980;2022-08-21T03:50:33;4.53;;;2.38;;
69573;SDS011;62840;52.366;5.980;2022-08-21T03:53:01;4.30;;;2.28;;
69573;SDS011;62840;52.366;5.980;2022-08-21T03:55:30;6.27;;;2.40;;
69573;SDS011;62840;52.366;5.980;2022-08-21T03:57:56;5.10;;;2.42;;
69573;SDS011;62840;52.366;5.980;2022-08-21T04:00:22;4.40;;;2.45;;
69573;SDS011;62840;52.366;5.980;2022-08-21T04:02:48;4.22;;;2.30;;
69573;SDS011;62840;52.366;5.980;2022-08-21T04:05:15;5.40;;;2.37;;
69573;SDS011;62840;52.366;5.980;2022-08-21T04:07:43;5.45;;;2.70;;
69573;SDS011;62840;52.366;5.980;2022-08-21T04:10:09;4.40;;;2.58;;
69573;SDS011;62840;52.366;5.980;2022-08-21T04:12:37;4.97;;;2.77;;
69573;SDS011;62840;52.366;5.980;2022-08-21T04:15:03;4.40;;;2.20;;
69573;SDS011;62840;52.366;5.980;2022-08-21T04:17:30;5.60;;;2.15;;
69573;SDS011;62840;52.366;5.980;2022-08-21T04:19:56;4.68;;;2.10;;
69573;SDS011;62840;52.366;5.980;2022-08-21T04:22:21;5.25;;;2.65;;
69573;SDS011;62840;52.366;5.980;2022-08-21T04:24:47;4.97;;;2.92;;
69573;SDS011;62840;52.366;5.980;2022-08-21T04:27:13;4.30;;;2.37;;
69573;SDS011;62840;52.366;5.980;2022-08-21T04:29:41;4.90;;;2.22;;
69573;SDS011;62840;52.366;5.980;2022-08-21T04:32:07;5.33;;;2.20;;
69573;SDS011;62840;52.366;5.980;2022-08-21T04:34:33;5.60;;;2.40;;
69573;SDS011;62840;52.366;5.980;2022-08-21T04:36:58;5.93;;;2.50;;
69573;SDS011;62840;52.366;5.980;2022-08-21T04:39:24;4.60;;;1.88;;
69573;SDS011;62840;52.366;5.980;2022-08-21T04:41:50;4.30;;;2.03;;
69573;SDS011;62840;52.366;5.980;2022-08-21T04:44:16;4.22;;;2.28;;
69573;SDS011;62840;52.366;5.980;2022-08-21T04:46:44;4.80;;;2.40;;
69573;SDS011;62840;52.366;5.980;2022-08-21T04:49:10;5.03;;;2.40;;
69573;SDS011;62840;52.366;5.980;2022-08-21T04:51:36;4.68;;;2.50;;
69573;SDS011;62840;52.366;5.980;2022-08-21T04:54:06;4.32;;;2.10;;
69573;SDS011;62840;52.366;5.980;2022-08-21T04:56:39;5.00;;;2.53;;
69573;SDS011;62840;52.366;5.980;2022-08-21T04:59:11;4.22;;;1.90;;
69573;SDS011;62840;52.366;5.980;2022-08-21T05:01:47;3.80;;;2.20;;
69573;SDS011;62840;52.366;5.980;2022-08-21T05:04:14;4.63;;;2.00;;
69573;SDS011;62840;52.366;5.980;2022-08-21T05:06:47;4.07;;;2.22;;
69573;SDS011;62840;52.366;5.980;2022-08-21T05:09:16;5.20;;;1.90;;
69573;SDS011;62840;52.366;5.980;2022-08-21T05:11:44;4.85;;;2.17;;
69573;SDS011;62840;52.366;5.980;2022-08-21T05:14:11;5.03;;;2.35;;
69573;SDS011;62840;52.366;5.980;2022-08-21T05:16:38;5.80;;;2.58;;
69573;SDS011;62840;52.366;5.980;2022-08-21T05:19:06;5.20;;;2.00;;
69573;SDS011;62840;52.366;5.980;2022-08-21T05:21:33;6.13;;;2.70;;
69573;SDS011;62840;52.366;5.980;2022-08-21T05:24:01;5.20;;;2.00;;
69573;SDS011;62840;52.366;5.980;2022-08-21T05:26:27;4.15;;;1.98;;
69573;SDS011;62840;52.366;5.980;2022-08-21T05:28:53;3.92;;;2.10;;
69573;SDS011;62840;52.366;5.980;2022-08-21T05:31:18;4.90;;;2.17;;
69573;SDS011;62840;52.366;5.980;2022-08-21T05:33:44;4.65;;;2.00;;
69573;SDS011;62840;52.366;5.980;2022-08-21T05:36:12;4.30;;;2.20;;
69573;SDS011;62840;52.366;5.980;2022-08-21T05:38:39;4.05;;;2.10;;
69573;SDS011;62840;52.366;5.980;2022-08-21T05:41:05;5.88;;;2.00;;
69573;SDS011;62840;52.366;5.980;2022-08-21T05:43:31;4.30;;;1.90;;
69573;SDS011;62840;52.366;5.980;2022-08-21T05:45:56;4.97;;;2.25;;
69573;SDS011;62840;52.366;5.980;2022-08-21T05:48:23;4.47;;;2.27;;
69573;SDS011;62840;52.366;5.980;2022-08-21T05:50:49;4.20;;;2.00;;
69573;SDS011;62840;52.366;5.980;2022-08-21T05:53:20;5.00;;;2.13;;
69573;SDS011;62840;52.366;5.980;2022-08-21T05:55:47;4.13;;;1.98;;
69573;SDS011;62840;52.366;5.980;2022-08-21T05:58:14;3.90;;;1.95;;
69573;SDS011;62840;52.366;5.980;2022-08-21T06:00:41;4.47;;;2.40;;
69573;SDS011;62840;52.366;5.980;2022-08-21T06:03:12;5.07;;;2.10;;
69573;SDS011;62840;52.366;5.980;2022-08-21T06:05:40;3.72;;;1.90;;
69573;SDS011;62840;52.366;5.980;2022-08-21T06:08:06;4.90;;;2.10;;
69573;SDS011;62840;52.366;5.980;2022-08-21T06:10:34;4.90;;;2.20;;
69573;SDS011;62840;52.366;5.980;2022-08-21T06:13:00;5.82;;;2.20;;
69573;SDS011;62840;52.366;5.980;2022-08-21T06:15:26;5.93;;;2.50;;
69573;SDS011;62840;52.366;5.980;2022-08-21T06:17:52;4.82;;;2.08;;
69573;SDS011;62840;52.366;5.980;2022-08-21T06:20:19;4.28;;;1.92;;
69573;SDS011;62840;52.366;5.980;2022-08-21T06:22:45;4.40;;;2.33;;
69573;SDS011;62840;52.366;5.980;2022-08-21T06:25:11;3.70;;;1.80;;
69573;SDS011;62840;52.366;5.980;2022-08-21T06:27:39;4.70;;;2.10;;
69573;SDS011;62840;52.366;5.980;2022-08-21T06:30:05;4.32;;;2.03;;
69573;SDS011;62840;52.366;5.980;2022-08-21T06:32:33;4.53;;;1.83;;
69573;SDS011;62840;52.366;5.980;2022-08-21T06:35:00;4.43;;;1.85;;
69573;SDS011;62840;52.366;5.980;2022-08-21T06:37:26;6.50;;;2.08;;
69573;SDS011;62840;52.366;5.980;2022-08-21T06:39:51;8.00;;;2.03;;
69573;SDS011;62840;52.366;5.980;2022-08-21T06:42:17;5.38;;;2.40;;
69573;SDS011;62840;52.366;5.980;2022-08-21T06:44:46;4.57;;;2.30;;
69573;SDS011;62840;52.366;5.980;2022-08-21T06:47:12;3.83;;;2.08;;
69573;SDS011;62840;52.366;5.980;2022-08-21T06:49:38;4.93;;;1.92;;
69573;SDS011;62840;52.366;5.980;2022-08-21T06:52:08;5.60;;;1.90;;
69573;SDS011;62840;52.366;5.980;2022-08-21T06:54:35;3.50;;;1.80;;
69573;SDS011;62840;52.366;5.980;2022-08-21T06:57:01;4.95;;;1.80;;
69573;SDS011;62840;52.366;5.980;2022-08-21T06:59:27;4.35;;;2.22;;
69573;SDS011;62840;52.366;5.980;2022-08-21T07:01:55;5.82;;;2.08;;
69573;SDS011;62840;52.366;5.980;2022-08-21T07:04:21;5.07;;;2.10;;
69573;SDS011;62840;52.366;5.980;2022-08-21T07:06:46;5.38;;;2.28;;
69573;SDS011;62840;52.366;5.980;2022-08-21T07:09:12;7.13;;;2.30;;
69573;SDS011;62840;52.366;5.980;2022-08-21T07:11:38;4.80;;;2.03;;
69573;SDS011;62840;52.366;5.980;2022-08-21T07:14:04;6.60;;;2.10;;
69573;SDS011;62840;52.366;5.980;2022-08-21T07:16:29;7.50;;;2.08;;
69573;SDS011;62840;52.366;5.980;2022-08-21T07:18:58;7.17;;;1.97;;
69573;SDS011;62840;52.366;5.980;2022-08-21T07:21:23;5.40;;;1.92;;
69573;SDS011;62840;52.366;5.980;2022-08-21T07:23:50;5.55;;;2.03;;
69573;SDS011;62840;52.366;5.980;2022-08-21T07:26:19;5.70;;;2.65;;
69573;SDS011;62840;52.366;5.980;2022-08-21T07:28:47;7.57;;;2.25;;
69573;SDS011;62840;52.366;5.980;2022-08-21T07:31:16;5.93;;;1.90;;
69573;SDS011;62840;52.366;5.980;2022-08-21T07:33:45;5.35;;;1.83;;
69573;SDS011;62840;52.366;5.980;2022-08-21T07:36:14;6.30;;;2.05;;
69573;SDS011;62840;52.366;5.980;2022-08-21T07:38:40;5.00;;;1.80;;
69573;SDS011;62840;52.366;5.980;2022-08-21T07:41:07;4.53;;;1.92;;
69573;SDS011;62840;52.366;5.980;2022-08-21T07:43:39;4.40;;;1.85;;
69573;SDS011;62840;52.366;5.980;2022-08-21T07:46:05;5.00;;;1.77;;
69573;SDS011;62840;52.366;5.980;2022-08-21T07:48:31;6.65;;;1.95;;
69573;SDS011;62840;52.366;5.980;2022-08-21T07:50:57;5.10;;;1.50;;
69573;SDS011;62840;52.366;5.980;2022-08-21T07:53:30;6.72;;;2.00;;
69573;SDS011;62840;52.366;5.980;2022-08-21T07:55:56;6.25;;;1.88;;
69573;SDS011;62840;52.366;5.980;2022-08-21T07:58:22;6.40;;;1.50;;
69573;SDS011;62840;52.366;5.980;2022-08-21T08:00:48;5.43;;;1.60;;
69573;SDS011;62840;52.366;5.980;2022-08-21T08:03:14;6.28;;;1.80;;
69573;SDS011;62840;52.366;5.980;2022-08-21T08:05:40;5.90;;;1.30;;
69573;SDS011;62840;52.366;5.980;2022-08-21T08:08:05;5.87;;;1.50;;
69573;SDS011;62840;52.366;5.980;2022-08-21T08:10:34;5.25;;;1.48;;
69573;SDS011;62840;52.366;5.980;2022-08-21T08:13:01;6.22;;;1.90;;
69573;SDS011;62840;52.366;5.980;2022-08-21T08:15:27;4.95;;;1.88;;
69573;SDS011;62840;52.366;5.980;2022-08-21T08:17:53;4.70;;;1.53;;
69573;SDS011;62840;52.366;5.980;2022-08-21T08:20:21;5.70;;;1.52;;
69573;SDS011;62840;52.366;5.980;2022-08-21T08:22:48;4.25;;;1.33;;
69573;SDS011;62840;52.366;5.980;2022-08-21T08:25:14;5.30;;;1.38;;
69573;SDS011;62840;52.366;5.980;2022-08-21T08:27:43;4.90;;;1.58;;
69573;SDS011;62840;52.366;5.980;2022-08-21T08:30:10;5.97;;;1.67;;
69573;SDS011;62840;52.366;5.980;2022-08-21T08:32:39;5.78;;;1.55;;
69573;SDS011;62840;52.366;5.980;2022-08-21T08:35:06;8.70;;;2.42;;
69573;SDS011;62840;52.366;5.980;2022-08-21T08:37:33;9.35;;;2.75;;
69573;SDS011;62840;52.366;5.980;2022-08-21T08:40:00;12.13;;;3.20;;
69573;SDS011;62840;52.366;5.980;2022-08-21T08:42:27;7.03;;;2.30;;
69573;SDS011;62840;52.366;5.980;2022-08-21T08:44:59;6.55;;;1.90;;
69573;SDS011;62840;52.366;5.980;2022-08-21T08:47:31;10.77;;;2.50;;
69573;SDS011;62840;52.366;5.980;2022-08-21T08:50:02;7.00;;;2.05;;
69573;SDS011;62840;52.366;5.980;2022-08-21T08:52:31;4.88;;;1.85;;
69573;SDS011;62840;52.366;5.980;2022-08-21T08:55:02;7.40;;;1.93;;
69573;SDS011;62840;52.366;5.980;2022-08-21T08:57:31;7.63;;;2.53;;
69573;SDS011;62840;52.366;5.980;2022-08-21T09:00:03;7.97;;;2.25;;
69573;SDS011;62840;52.366;5.980;2022-08-21T09:02:34;6.45;;;1.85;;
69573;SDS011;62840;52.366;5.980;2022-08-21T09:05:03;8.95;;;2.70;;
69573;SDS011;62840;52.366;5.980;2022-08-21T09:07:33;6.20;;;2.07;;
69573;SDS011;62840;52.366;5.980;2022-08-21T09:10:13;9.52;;;2.08;;
69573;SDS011;62840;52.366;5.980;2022-08-21T09:12:47;8.25;;;2.53;;
69573;SDS011;62840;52.366;5.980;2022-08-21T09:15:26;9.45;;;2.25;;
69573;SDS011;62840;52.366;5.980;2022-08-21T09:18:05;9.48;;;2.58;;
69573;SDS011;62840;52.366;5.980;2022-08-21T09:20:55;8.43;;;2.80;;
69573;SDS011;62840;52.366;5.980;2022-08-21T09:23:34;8.65;;;2.50;;
69573;SDS011;62840;52.366;5.980;2022-08-21T09:26:14;6.75;;;2.60;;
69573;SDS011;62840;52.366;5.980;2022-08-21T09:28:42;6.63;;;2.30;;
69573;SDS011;62840;52.366;5.980;2022-08-21T09:31:15;5.60;;;2.30;;
69573;SDS011;62840;52.366;5.980;2022-08-21T09:33:47;8.10;;;2.00;;
69573;SDS011;62840;52.366;5.980;2022-08-21T09:36:13;5.85;;;2.10;;
69573;SDS011;62840;52.366;5.980;2022-08-21T09:38:51;7.97;;;2.03;;
69573;SDS011;62840;52.366;5.980;2022-08-21T09:41:25;8.98;;;2.50;;
69573;SDS011;62840;52.366;5.980;2022-08-21T09:43:53;6.78;;;1.90;;
69573;SDS011;62840;52.366;5.980;2022-08-21T09:46:22;8.97;;;2.70;;
69573;SDS011;62840;52.366;5.980;2022-08-21T09:48:51;4.93;;;1.67;;
69573;SDS011;62840;52.366;5.980;2022-08-21T09:51:20;7.13;;;1.90;;
69573;SDS011;62840;52.366;5.980;2022-08-21T09:53:51;5.95;;;2.20;;
69573;SDS011;62840;52.366;5.980;2022-08-21T09:56:27;7.45;;;2.00;;
69573;SDS011;62840;52.366;5.980;2022-08-21T09:58:56;5.97;;;2.22;;
69573;SDS011;62840;52.366;5.980;2022-08-21T10:01:25;5.78;;;2.05;;
69573;SDS011;62840;52.366;5.980;2022-08-21T10:04:01;6.07;;;2.40;;
69573;SDS011;62840;52.366;5.980;2022-08-21T10:06:28;7.25;;;2.67;;
69573;SDS011;62840;52.366;5.980;2022-08-21T10:09:03;5.38;;;1.70;;
69573;SDS011;62840;52.366;5.980;2022-08-21T10:11:31;6.82;;;1.88;;
69573;SDS011;62840;52.366;5.980;2022-08-21T10:14:01;6.75;;;2.40;;
69573;SDS011;62840;52.366;5.980;2022-08-21T10:16:47;8.88;;;2.28;;
69573;SDS011;62840;52.366;5.980;2022-08-21T10:19:29;5.65;;;2.00;;
69573;SDS011;62840;52.366;5.980;2022-08-21T10:22:10;6.45;;;2.25;;
69573;SDS011;62840;52.366;5.980;2022-08-21T10:24:56;8.00;;;1.95;;
69573;SDS011;62840;52.366;5.980;2022-08-21T10:27:36;8.00;;;2.17;;
69573;SDS011;62840;52.366;5.980;2022-08-21T10:30:15;7.53;;;2.22;;
69573;SDS011;62840;52.366;5.980;2022-08-21T10:33:10;5.35;;;2.15;;
69573;SDS011;62840;52.366;5.980;2022-08-21T10:35:54;6.15;;;1.83;;
69573;SDS011;62840;52.366;5.980;2022-08-21T10:38:40;4.05;;;1.50;;
69573;SDS011;62840;52.366;5.980;2022-08-21T10:41:26;4.95;;;1.58;;
69573;SDS011;62840;52.366;5.980;2022-08-21T10:44:12;6.95;;;1.95;;
69573;SDS011;62840;52.366;5.980;2022-08-21T10:46:51;6.57;;;1.83;;
69573;SDS011;62840;52.366;5.980;2022-08-21T10:49:32;5.82;;;1.70;;
69573;SDS011;62840;52.366;5.980;2022-08-21T10:52:26;6.13;;;2.00;;
69573;SDS011;62840;52.366;5.980;2022-08-21T10:55:14;6.38;;;2.30;;
69573;SDS011;62840;52.366;5.980;2022-08-21T10:57:46;7.35;;;1.98;;
69573;SDS011;62840;52.366;5.980;2022-08-21T11:00:20;5.75;;;1.85;;
69573;SDS011;62840;52.366;5.980;2022-08-21T11:02:50;6.78;;;1.80;;
69573;SDS011;62840;52.366;5.980;2022-08-21T11:05:30;5.65;;;1.80;;
69573;SDS011;62840;52.366;5.980;2022-08-21T11:08:01;6.88;;;2.22;;
69573;SDS011;62840;52.366;5.980;2022-08-21T11:10:36;5.53;;;1.73;;
69573;SDS011;62840;52.366;5.980;2022-08-21T11:13:12;4.85;;;1.85;;
69573;SDS011;62840;52.366;5.980;2022-08-21T11:15:51;6.43;;;2.80;;
69573;SDS011;62840;52.366;5.980;2022-08-21T11:18:27;4.72;;;1.80;;
69573;SDS011;62840;52.366;5.980;2022-08-21T11:21:04;5.47;;;2.05;;
69573;SDS011;62840;52.366;5.980;2022-08-21T11:23:47;7.40;;;1.98;;
69573;SDS011;62840;52.366;5.980;2022-08-21T11:26:23;8.65;;;2.30;;
69573;SDS011;62840;52.366;5.980;2022-08-21T11:29:02;4.97;;;2.20;;
69573;SDS011;62840;52.366;5.980;2022-08-21T11:31:39;6.35;;;2.15;;
69573;SDS011;62840;52.366;5.980;2022-08-21T11:34:25;6.68;;;1.88;;
69573;SDS011;62840;52.366;5.980;2022-08-21T11:37:15;5.55;;;1.80;;
69573;SDS011;62840;52.366;5.980;2022-08-21T11:39:56;5.72;;;2.00;;
69573;SDS011;62840;52.366;5.980;2022-08-21T11:42:40;6.80;;;1.70;;
69573;SDS011;62840;52.366;5.980;2022-08-21T11:45:18;4.57;;;1.80;;
69573;SDS011;62840;52.366;5.980;2022-08-21T11:47:59;6.63;;;2.42;;
69573;SDS011;62840;52.366;5.980;2022-08-21T11:50:36;7.15;;;2.00;;
69573;SDS011;62840;52.366;5.980;2022-08-21T11:53:11;7.35;;;2.20;;
69573;SDS011;62840;52.366;5.980;2022-08-21T11:55:43;5.20;;;1.88;;
69573;SDS011;62840;52.366;5.980;2022-08-21T11:58:16;6.30;;;2.15;;
69573;SDS011;62840;52.366;5.980;2022-08-21T12:00:49;7.90;;;2.45;;
69573;SDS011;62840;52.366;5.980;2022-08-21T12:03:22;6.22;;;2.25;;
69573;SDS011;62840;52.366;5.980;2022-08-21T12:05:55;6.60;;;2.35;;
69573;SDS011;62840;52.366;5.980;2022-08-21T12:08:31;7.03;;;2.20;;
69573;SDS011;62840;52.366;5.980;2022-08-21T12:11:02;4.97;;;2.33;;
69573;SDS011;62840;52.366;5.980;2022-08-21T12:13:34;6.15;;;2.38;;
69573;SDS011;62840;52.366;5.980;2022-08-21T12:16:07;6.78;;;3.08;;
69573;SDS011;62840;52.366;5.980;2022-08-21T12:18:36;5.90;;;2.70;;
69573;SDS011;62840;52.366;5.980;2022-08-21T12:21:03;6.45;;;2.97;;
69573;SDS011;62840;52.366;5.980;2022-08-21T12:23:47;5.93;;;2.75;;
69573;SDS011;62840;52.366;5.980;2022-08-21T12:26:25;6.00;;;2.40;;
69573;SDS011;62840;52.366;5.980;2022-08-21T12:31:48;7.30;;;2.50;;
69573;SDS011;62840;52.366;5.980;2022-08-21T12:34:27;6.75;;;2.92;;
69573;SDS011;62840;52.366;5.980;2022-08-21T12:37:02;5.38;;;2.70;;
69573;SDS011;62840;52.366;5.980;2022-08-21T12:39:43;5.90;;;3.00;;
69573;SDS011;62840;52.366;5.980;2022-08-21T12:42:15;6.22;;;2.75;;
69573;SDS011;62840;52.366;5.980;2022-08-21T12:44:46;6.50;;;2.50;;
69573;SDS011;62840;52.366;5.980;2022-08-21T12:47:21;6.50;;;2.78;;
69573;SDS011;62840;52.366;5.980;2022-08-21T12:49:56;6.18;;;3.40;;
69573;SDS011;62840;52.366;5.980;2022-08-21T12:52:32;6.57;;;3.10;;
69573;SDS011;62840;52.366;5.980;2022-08-21T12:55:10;6.60;;;3.55;;
69573;SDS011;62840;52.366;5.980;2022-08-21T12:57:39;6.53;;;3.20;;
69573;SDS011;62840;52.366;5.980;2022-08-21T13:00:07;6.28;;;3.33;;
69573;SDS011;62840;52.366;5.980;2022-08-21T13:02:37;6.18;;;3.65;;
69573;SDS011;62840;52.366;5.980;2022-08-21T13:05:12;7.65;;;3.30;;
69573;SDS011;62840;52.366;5.980;2022-08-21T13:07:45;7.30;;;3.60;;
69573;SDS011;62840;52.366;5.980;2022-08-21T13:10:18;7.33;;;3.50;;
69573;SDS011;62840;52.366;5.980;2022-08-21T13:12:48;9.48;;;4.05;;
69573;SDS011;62840;52.366;5.980;2022-08-21T13:15:21;8.82;;;3.85;;
69573;SDS011;62840;52.366;5.980;2022-08-21T13:17:51;5.43;;;3.40;;
69573;SDS011;62840;52.366;5.980;2022-08-21T13:20:19;9.50;;;3.77;;
69573;SDS011;62840;52.366;5.980;2022-08-21T13:22:48;7.22;;;3.30;;
69573;SDS011;62840;52.366;5.980;2022-08-21T13:25:18;8.05;;;3.20;;
69573;SDS011;62840;52.366;5.980;2022-08-21T13:27:56;6.55;;;3.30;;
69573;SDS011;62840;52.366;5.980;2022-08-21T13:30:29;6.85;;;3.10;;
69573;SDS011;62840;52.366;5.980;2022-08-21T13:32:55;6.67;;;2.90;;
69573;SDS011;62840;52.366;5.980;2022-08-21T13:35:26;6.65;;;3.20;;
69573;SDS011;62840;52.366;5.980;2022-08-21T13:37:55;6.20;;;3.17;;
69573;SDS011;62840;52.366;5.980;2022-08-21T13:40:26;5.88;;;3.13;;
69573;SDS011;62840;52.366;5.980;2022-08-21T13:43:03;6.33;;;3.10;;
69573;SDS011;62840;52.366;5.980;2022-08-21T13:45:37;7.43;;;2.88;;
69573;SDS011;62840;52.366;5.980;2022-08-21T13:48:02;7.00;;;3.33;;
69573;SDS011;62840;52.366;5.980;2022-08-21T13:50:30;6.47;;;3.42;;
69573;SDS011;62840;52.366;5.980;2022-08-21T13:53:01;7.90;;;3.45;;
69573;SDS011;62840;52.366;5.980;2022-08-21T13:55:38;4.88;;;3.05;;
69573;SDS011;62840;52.366;5.980;2022-08-21T13:58:07;8.80;;;4.15;;
69573;SDS011;62840;52.366;5.980;2022-08-21T14:00:43;9.38;;;4.35;;
69573;SDS011;62840;52.366;5.980;2022-08-21T14:03:15;7.90;;;4.50;;
69573;SDS011;62840;52.366;5.980;2022-08-21T14:05:56;10.77;;;4.50;;
69573;SDS011;62840;52.366;5.980;2022-08-21T14:08:23;9.25;;;4.65;;
69573;SDS011;62840;52.366;5.980;2022-08-21T14:11:00;8.05;;;3.92;;
69573;SDS011;62840;52.366;5.980;2022-08-21T14:13:33;8.57;;;4.40;;
69573;SDS011;62840;52.366;5.980;2022-08-21T14:16:10;7.32;;;3.97;;
69573;SDS011;62840;52.366;5.980;2022-08-21T14:18:44;8.15;;;3.92;;
69573;SDS011;62840;52.366;5.980;2022-08-21T14:21:23;8.32;;;3.30;;
69573;SDS011;62840;52.366;5.980;2022-08-21T14:24:02;6.20;;;3.47;;
69573;SDS011;62840;52.366;5.980;2022-08-21T14:26:35;9.88;;;3.55;;
69573;SDS011;62840;52.366;5.980;2022-08-21T14:29:11;7.03;;;3.22;;
69573;SDS011;62840;52.366;5.980;2022-08-21T14:31:40;6.45;;;3.10;;
69573;SDS011;62840;52.366;5.980;2022-08-21T14:34:06;7.72;;;2.85;;
69573;SDS011;62840;52.366;5.980;2022-08-21T14:36:32;8.70;;;2.60;;
69573;SDS011;62840;52.366;5.980;2022-08-21T14:38:57;7.03;;;2.40;;
69573;SDS011;62840;52.366;5.980;2022-08-21T14:41:24;6.75;;;2.60;;
69573;SDS011;62840;52.366;5.980;2022-08-21T14:43:56;11.18;;;2.90;;
69573;SDS011;62840;52.366;5.980;2022-08-21T14:46:23;7.03;;;2.55;;
69573;SDS011;62840;52.366;5.980;2022-08-21T14:48:53;6.88;;;2.45;;
69573;SDS011;62840;52.366;5.980;2022-08-21T14:51:19;7.57;;;2.13;;
69573;SDS011;62840;52.366;5.980;2022-08-21T14:53:45;6.47;;;2.10;;
69573;SDS011;62840;52.366;5.980;2022-08-21T14:56:12;7.20;;;2.20;;
69573;SDS011;62840;52.366;5.980;2022-08-21T14:58:39;5.85;;;1.85;;
69573;SDS011;62840;52.366;5.980;2022-08-21T15:01:11;5.68;;;2.70;;
69573;SDS011;62840;52.366;5.980;2022-08-21T15:03:40;5.47;;;2.00;;
69573;SDS011;62840;52.366;5.980;2022-08-21T15:06:07;5.65;;;2.03;;
69573;SDS011;62840;52.366;5.980;2022-08-21T15:08:34;6.22;;;1.90;;